Time;durP1;ratioP1;P1;durP2;ratioP2;P2;SDS_P1;SDS_P2;PMS_P1;PMS_P2;Temp;Humidity;BMP_temperature;BMP_pressure;BME280_temperature;BME280_humidity;BME280_pressure;Samples;Min_cycle;Max_cycle;Signal;HPM_P1;HPM_P2
2022/04/09 00:00:32;;;;;;;1.95;0.65;;;14.50;47.30;;;;;;5091669;28;20032;-69
2022/04/09 00:02:59;;;;;;;2.80;0.50;;;14.50;47.30;;;;;;5093197;28;20040;-66
2022/04/09 00:05:25;;;;;;;3.25;0.30;;;14.50;47.30;;;;;;5093571;28;20040;-70
2022/04/09 00:07:50;;;;;;;1.58;0.50;;;14.50;47.30;;;;;;5093197;28;20036;-70
2022/04/09 00:10:17;;;;;;;2.38;0.30;;;14.50;47.30;;;;;;5093539;28;20467;-69
2022/04/09 00:12:47;;;;;;;4.38;0.50;;;14.50;47.30;;;;;;5093205;28;20127;-67
2022/04/09 00:15:13;;;;;;;1.07;0.30;;;14.40;47.30;;;;;;5093894;28;20036;-70
2022/04/09 00:17:41;;;;;;;2.05;0.40;;;14.40;47.30;;;;;;5092534;28;20043;-69
2022/04/09 00:20:08;;;;;;;1.92;0.40;;;14.40;47.30;;;;;;5076094;28;20076;-67
2022/04/09 00:22:34;;;;;;;3.60;0.32;;;14.40;47.30;;;;;;5092888;28;20048;-66
2022/04/09 00:25:00;;;;;;;2.40;0.30;;;14.40;47.30;;;;;;5094346;28;20028;-72
2022/04/09 00:27:27;;;;;;;3.47;0.47;;;14.40;47.30;;;;;;5093679;28;20114;-70
2022/04/09 00:29:54;;;;;;;2.47;0.60;;;14.40;47.40;;;;;;5093224;28;20105;-70
2022/04/09 00:32:19;;;;;;;2.90;0.25;;;14.40;47.40;;;;;;5092757;28;20048;-70
2022/04/09 00:34:45;;;;;;;2.28;0.30;;;14.40;47.40;;;;;;5092339;28;20431;-72
2022/04/09 00:37:10;;;;;;;2.13;0.57;;;14.40;47.40;;;;;;5092012;28;20486;-67
2022/04/09 00:39:36;;;;;;;1.75;0.20;;;14.40;47.40;;;;;;5092240;28;20036;-71
2022/04/09 00:42:02;;;;;;;2.08;0.20;;;14.30;47.40;;;;;;5092328;28;20112;-66
2022/04/09 00:44:27;;;;;;;3.00;0.60;;;14.30;47.40;;;;;;5094260;28;20028;-69
2022/04/09 00:46:53;;;;;;;2.90;0.40;;;14.40;47.50;;;;;;5093562;28;20522;-66
2022/04/09 00:49:20;;;;;;;2.83;0.30;;;14.30;47.40;;;;;;5092850;28;20040;-71
2022/04/09 00:51:47;;;;;;;2.25;0.40;;;14.40;47.50;;;;;;5093665;28;20032;-69
2022/04/09 00:54:14;;;;;;;3.17;0.20;;;14.40;47.50;;;;;;5089660;28;20056;-70
2022/04/09 00:56:45;;;;;;;4.40;0.40;;;14.30;47.50;;;;;;5091747;28;20044;-69
2022/04/09 00:59:13;;;;;;;1.17;0.20;;;14.30;47.50;;;;;;5092335;28;20365;-70
2022/04/09 01:01:41;;;;;;;1.83;0.40;;;14.30;47.50;;;;;;5093767;28;20051;-70
2022/04/09 01:04:09;;;;;;;3.45;0.50;;;14.30;47.50;;;;;;5092549;28;20141;-72
2022/04/09 01:06:36;;;;;;;3.30;0.30;;;14.30;47.50;;;;;;5091755;28;20085;-71
2022/04/09 01:09:03;;;;;;;1.83;0.32;;;14.30;47.50;;;;;;5093558;28;20129;-70
2022/04/09 01:11:29;;;;;;;2.22;0.40;;;14.30;47.50;;;;;;5092275;28;20391;-70
2022/04/09 01:13:55;;;;;;;2.35;0.30;;;14.30;47.50;;;;;;5091577;28;20043;-70
2022/04/09 01:16:22;;;;;;;1.50;0.30;;;14.30;47.50;;;;;;5092418;28;20547;-69
2022/04/09 01:18:48;;;;;;;2.92;0.40;;;14.30;47.50;;;;;;5091458;28;20038;-70
2022/04/09 01:21:14;;;;;;;1.70;0.30;;;14.20;47.50;;;;;;5091856;28;20574;-70
2022/04/09 01:23:39;;;;;;;3.50;0.47;;;14.20;47.50;;;;;;5092016;28;20046;-69
2022/04/09 01:26:06;;;;;;;4.32;0.32;;;14.20;47.50;;;;;;5092795;28;20484;-70
2022/04/09 01:28:32;;;;;;;1.55;0.30;;;14.20;47.50;;;;;;5091785;28;20504;-70
2022/04/09 01:31:01;;;;;;;1.65;0.22;;;14.20;47.50;;;;;;5091671;28;20530;-70
2022/04/09 01:33:27;;;;;;;2.70;0.40;;;14.20;47.50;;;;;;5091135;28;20526;-69
2022/04/09 01:35:55;;;;;;;1.60;0.30;;;14.20;47.50;;;;;;5090984;28;20052;-70
2022/04/09 01:38:21;;;;;;;1.45;0.20;;;14.20;47.50;;;;;;5090871;28;20084;-69
2022/04/09 01:40:47;;;;;;;1.15;0.22;;;14.20;47.50;;;;;;5091438;28;20047;-68
2022/04/09 01:43:12;;;;;;;1.60;0.45;;;14.20;47.60;;;;;;5091701;28;20048;-69
2022/04/09 01:45:38;;;;;;;3.45;0.85;;;14.20;47.60;;;;;;5091861;28;20040;-70
2022/04/09 01:48:04;;;;;;;1.00;0.20;;;14.20;47.50;;;;;;5091176;28;20060;-69
2022/04/09 01:50:30;;;;;;;1.80;0.30;;;14.20;47.60;;;;;;5092701;28;20158;-66
2022/04/09 01:52:56;;;;;;;1.42;0.30;;;14.10;47.50;;;;;;5090694;28;20048;-70
2022/04/09 01:55:22;;;;;;;1.98;0.30;;;14.10;47.50;;;;;;5090760;28;20047;-69
2022/04/09 01:57:49;;;;;;;1.20;0.20;;;14.10;47.60;;;;;;5091492;28;20044;-70
2022/04/09 02:00:16;;;;;;;1.02;0.20;;;14.10;47.50;;;;;;5090159;28;20475;-66
2022/04/09 02:02:42;;;;;;;1.42;0.30;;;14.10;47.50;;;;;;5091160;28;20109;-69
2022/04/09 02:05:11;;;;;;;2.80;0.30;;;14.10;47.60;;;;;;5092561;28;20097;-71
2022/04/09 02:07:37;;;;;;;1.20;0.30;;;14.10;47.60;;;;;;5090627;28;20105;-69
2022/04/09 02:10:05;;;;;;;1.65;0.52;;;14.10;47.60;;;;;;5091234;28;20445;-66
2022/04/09 02:12:32;;;;;;;0.88;0.20;;;14.10;47.60;;;;;;5090729;28;20075;-69
2022/04/09 02:14:57;;;;;;;3.08;0.50;;;14.10;47.60;;;;;;5092005;28;20040;-71
2022/04/09 02:17:23;;;;;;;1.73;0.40;;;14.10;47.60;;;;;;5091641;28;20036;-69
2022/04/09 02:19:49;;;;;;;1.40;0.20;;;14.10;47.60;;;;;;5090365;28;20085;-69
2022/04/09 02:22:14;;;;;;;1.25;0.20;;;14.10;47.60;;;;;;5090480;28;20044;-68
2022/04/09 02:24:41;;;;;;;1.85;0.20;;;14.00;47.60;;;;;;5090863;28;20039;-70
2022/04/09 02:27:06;;;;;;;2.70;0.45;;;14.00;47.60;;;;;;5090123;28;20051;-69
2022/04/09 02:29:32;;;;;;;0.98;0.30;;;14.00;47.60;;;;;;5091003;28;20040;-69
2022/04/09 02:32:00;;;;;;;2.20;0.28;;;14.10;47.70;;;;;;5090478;28;20403;-68
2022/04/09 02:34:26;;;;;;;0.95;0.20;;;14.00;47.60;;;;;;5090303;28;20464;-71
2022/04/09 02:36:51;;;;;;;1.63;0.30;;;14.00;47.60;;;;;;5091090;28;20184;-66
2022/04/09 02:39:21;;;;;;;0.50;0.20;;;14.00;47.60;;;;;;5091027;28;20077;-69
2022/04/09 02:41:50;;;;;;;1.93;0.30;;;14.00;47.60;;;;;;5091695;28;20119;-66
2022/04/09 02:44:17;;;;;;;2.00;0.30;;;14.00;47.60;;;;;;5091936;28;20043;-71
2022/04/09 02:46:47;;;;;;;1.60;0.20;;;14.00;47.60;;;;;;5091156;28;20422;-69
2022/04/09 02:49:13;;;;;;;2.33;0.28;;;14.00;47.60;;;;;;5090486;28;20114;-69
2022/04/09 02:51:39;;;;;;;2.03;0.30;;;14.00;47.60;;;;;;5090456;28;20040;-68
2022/04/09 02:54:05;;;;;;;2.17;0.30;;;14.00;47.60;;;;;;5089366;28;20048;-69
2022/04/09 02:56:31;;;;;;;1.48;0.20;;;13.90;47.60;;;;;;5089589;28;20547;-69
2022/04/09 02:58:56;;;;;;;1.95;0.20;;;14.00;47.60;;;;;;5090669;28;20035;-69
2022/04/09 03:01:24;;;;;;;1.77;0.30;;;13.90;47.60;;;;;;5089806;28;20036;-69
2022/04/09 03:03:50;;;;;;;1.52;0.20;;;13.90;47.60;;;;;;5088583;28;20107;-66
2022/04/09 03:06:16;;;;;;;1.45;0.20;;;13.90;47.60;;;;;;5089518;28;20139;-71
2022/04/09 03:08:42;;;;;;;2.25;0.50;;;13.90;47.60;;;;;;5089411;28;20071;-68
2022/04/09 03:11:09;;;;;;;1.27;0.25;;;13.90;47.60;;;;;;5090228;28;20032;-69
2022/04/09 03:13:34;;;;;;;1.95;0.20;;;13.90;47.60;;;;;;5091015;28;20042;-67
2022/04/09 03:16:00;;;;;;;1.73;0.20;;;13.90;47.60;;;;;;5089973;28;20471;-69
2022/04/09 03:18:25;;;;;;;1.80;0.20;;;13.90;47.60;;;;;;5089891;28;20373;-69
2022/04/09 03:20:51;;;;;;;0.82;0.20;;;13.90;47.60;;;;;;5091151;28;20067;-69
2022/04/09 03:23:17;;;;;;;0.45;0.17;;;13.90;47.60;;;;;;5089990;28;20401;-69
2022/04/09 03:25:42;;;;;;;2.38;0.90;;;13.90;47.60;;;;;;5089557;28;20051;-66
2022/04/09 03:28:08;;;;;;;1.42;0.45;;;13.90;47.60;;;;;;5089451;28;20051;-66
2022/04/09 03:30:34;;;;;;;1.13;0.20;;;13.90;47.60;;;;;;5090532;28;20063;-66
2022/04/09 03:33:00;;;;;;;2.55;0.30;;;13.90;47.60;;;;;;5090705;28;20036;-67
2022/04/09 03:35:26;;;;;;;1.38;0.20;;;13.90;47.60;;;;;;5092631;28;20048;-69
2022/04/09 03:37:51;;;;;;;2.70;0.40;;;13.90;47.60;;;;;;5093800;28;20047;-69
2022/04/09 03:40:20;;;;;;;1.10;0.10;;;13.90;47.60;;;;;;5095002;28;20046;-69
2022/04/09 03:42:46;;;;;;;2.05;0.20;;;13.90;47.60;;;;;;5093428;28;20115;-65
2022/04/09 03:45:12;;;;;;;0.68;0.17;;;13.90;47.60;;;;;;5093947;28;20142;-65
2022/04/09 03:47:37;;;;;;;1.90;0.30;;;13.90;47.60;;;;;;5093740;28;20035;-66
2022/04/09 03:50:04;;;;;;;1.95;0.20;;;13.90;47.60;;;;;;5095138;28;20040;-69
2022/04/09 03:52:30;;;;;;;0.77;0.20;;;13.90;47.50;;;;;;5093246;28;20044;-69
2022/04/09 03:54:56;;;;;;;0.70;0.22;;;13.90;47.50;;;;;;5093233;28;20097;-69
2022/04/09 03:57:21;;;;;;;2.03;0.40;;;13.90;47.50;;;;;;5094310;28;20460;-69
2022/04/09 03:59:48;;;;;;;1.38;0.20;;;13.90;47.50;;;;;;5093567;28;20036;-69
2022/04/09 04:02:14;;;;;;;0.75;0.30;;;13.90;47.50;;;;;;5093340;28;20040;-67
2022/04/09 04:04:40;;;;;;;1.23;0.15;;;13.90;47.50;;;;;;5093096;28;20382;-68
2022/04/09 04:07:05;;;;;;;2.05;0.30;;;13.90;47.40;;;;;;5093163;28;20649;-69
2022/04/09 04:09:31;;;;;;;1.83;0.25;;;13.90;47.50;;;;;;5094415;28;20047;-69
2022/04/09 04:11:57;;;;;;;1.27;0.20;;;13.90;47.40;;;;;;5093136;28;20051;-70
2022/04/09 04:14:25;;;;;;;1.23;0.15;;;13.90;47.40;;;;;;5092506;28;20044;-71
2022/04/09 04:16:51;;;;;;;1.13;0.13;;;13.90;47.40;;;;;;5092940;28;20388;-69
2022/04/09 04:19:19;;;;;;;1.58;0.17;;;13.90;47.40;;;;;;5092960;28;20039;-68
2022/04/09 04:21:45;;;;;;;1.88;0.30;;;13.90;47.40;;;;;;5092685;28;20040;-65
2022/04/09 04:24:11;;;;;;;0.60;0.10;;;13.90;47.40;;;;;;5075793;28;20039;-69
2022/04/09 04:26:36;;;;;;;3.85;0.30;;;13.90;47.40;;;;;;5092798;28;20508;-69
2022/04/09 04:29:02;;;;;;;1.83;0.20;;;13.90;47.40;;;;;;5092549;28;20052;-66
2022/04/09 04:31:28;;;;;;;1.33;0.10;;;13.90;47.40;;;;;;5093130;28;20043;-69
2022/04/09 04:33:53;;;;;;;1.25;0.40;;;13.90;47.40;;;;;;5094012;28;20039;-69
2022/04/09 04:36:19;;;;;;;1.02;0.10;;;13.80;47.30;;;;;;5093443;28;20093;-68
2022/04/09 04:38:46;;;;;;;1.85;0.20;;;13.80;47.30;;;;;;5092605;28;20438;-66
2022/04/09 04:41:12;;;;;;;0.85;0.10;;;13.80;47.30;;;;;;5092522;28;20040;-69
2022/04/09 04:43:37;;;;;;;1.27;0.30;;;13.80;47.30;;;;;;5093198;28;20047;-65
2022/04/09 04:46:03;;;;;;;0.73;0.10;;;13.90;47.40;;;;;;5090649;28;20050;-68
2022/04/09 04:48:29;;;;;;;1.25;0.28;;;13.80;47.30;;;;;;5092077;28;20036;-66
2022/04/09 04:50:55;;;;;;;1.75;0.20;;;13.80;47.30;;;;;;5089109;28;20098;-69
2022/04/09 04:53:23;;;;;;;1.50;0.20;;;13.80;47.30;;;;;;5089268;28;20492;-65
2022/04/09 04:55:49;;;;;;;1.83;0.17;;;13.80;47.30;;;;;;5091391;28;20044;-70
2022/04/09 04:58:19;;;;;;;1.77;0.20;;;13.80;47.30;;;;;;5091362;28;20119;-68
2022/04/09 05:00:48;;;;;;;1.98;0.25;;;13.80;47.40;;;;;;5092874;28;20119;-70
2022/04/09 05:03:15;;;;;;;0.93;0.10;;;13.80;47.40;;;;;;5091569;28;20096;-68
2022/04/09 05:05:40;;;;;;;1.48;0.25;;;13.80;47.40;;;;;;5091274;28;20040;-69
2022/04/09 05:08:06;;;;;;;2.45;0.63;;;13.80;47.40;;;;;;5092450;28;20051;-69
2022/04/09 05:10:32;;;;;;;3.17;0.25;;;13.80;47.40;;;;;;5091617;28;20032;-66
2022/04/09 05:12:59;;;;;;;0.93;0.17;;;13.80;47.40;;;;;;5093039;28;20131;-68
2022/04/09 05:15:25;;;;;;;1.70;0.40;;;13.80;47.40;;;;;;5091764;28;20418;-68
2022/04/09 05:17:51;;;;;;;0.82;0.30;;;13.80;47.40;;;;;;5091195;28;20036;-68
2022/04/09 05:20:16;;;;;;;1.40;0.20;;;13.80;47.40;;;;;;5091194;28;20162;-69
2022/04/09 05:22:46;;;;;;;2.13;0.40;;;13.80;47.40;;;;;;5091215;28;20085;-68
2022/04/09 05:25:13;;;;;;;0.95;0.20;;;13.80;47.40;;;;;;5091936;28;20054;-67
2022/04/09 05:27:40;;;;;;;1.83;0.15;;;13.80;47.40;;;;;;5091508;28;20126;-68
2022/04/09 05:30:06;;;;;;;0.70;0.20;;;13.80;47.40;;;;;;5091333;28;20052;-68
2022/04/09 05:32:32;;;;;;;2.00;0.20;;;13.80;47.40;;;;;;5091221;28;20114;-69
2022/04/09 05:34:58;;;;;;;1.65;0.15;;;13.80;47.40;;;;;;5090571;28;20162;-68
2022/04/09 05:37:23;;;;;;;0.73;0.10;;;13.80;47.40;;;;;;5090962;28;20085;-68
2022/04/09 05:39:49;;;;;;;1.08;0.30;;;13.80;47.30;;;;;;5090897;28;20036;-68
2022/04/09 05:42:15;;;;;;;0.70;0.10;;;13.80;47.30;;;;;;5090895;28;20035;-70
2022/04/09 05:44:41;;;;;;;1.75;0.20;;;13.80;47.30;;;;;;5091453;28;20376;-67
2022/04/09 05:47:06;;;;;;;1.27;0.30;;;13.70;47.30;;;;;;5090963;28;20036;-70
2022/04/09 05:49:32;;;;;;;2.22;0.22;;;13.80;47.30;;;;;;5090735;28;20036;-70
2022/04/09 05:51:58;;;;;;;0.82;0.10;;;13.70;47.20;;;;;;5092189;28;20097;-68
2022/04/09 05:54:24;;;;;;;1.40;0.10;;;13.80;47.20;;;;;;5090128;28;20060;-67
2022/04/09 05:56:51;;;;;;;0.80;0.10;;;13.80;47.20;;;;;;5091305;28;20074;-65
2022/04/09 05:59:16;;;;;;;1.08;0.20;;;13.80;47.20;;;;;;5090090;28;20504;-70
2022/04/09 06:01:42;;;;;;;0.60;0.10;;;13.80;47.10;;;;;;5090621;28;20123;-69
2022/04/09 06:04:08;;;;;;;2.90;0.20;;;13.80;47.20;;;;;;5090095;28;20089;-67
2022/04/09 06:06:34;;;;;;;1.85;0.50;;;13.80;47.10;;;;;;5091915;28;20051;-69
2022/04/09 06:09:00;;;;;;;3.15;0.32;;;13.80;47.10;;;;;;5090389;28;20032;-69
2022/04/09 06:11:26;;;;;;;1.15;0.30;;;13.80;47.00;;;;;;5090579;28;20064;-70
2022/04/09 06:13:51;;;;;;;0.75;0.10;;;13.80;47.10;;;;;;5090034;28;20040;-69
2022/04/09 06:16:17;;;;;;;1.10;0.25;;;13.80;47.00;;;;;;5089662;28;20044;-68
2022/04/09 06:18:43;;;;;;;1.95;0.30;;;13.80;47.10;;;;;;5090196;28;20040;-66
2022/04/09 06:21:09;;;;;;;1.02;0.10;;;13.80;47.10;;;;;;5090202;28;20173;-68
2022/04/09 06:23:35;;;;;;;1.73;0.20;;;13.80;47.10;;;;;;5089752;28;20063;-66
2022/04/09 06:26:01;;;;;;;1.75;0.20;;;13.80;47.00;;;;;;5090500;28;20051;-66
2022/04/09 06:28:27;;;;;;;1.23;0.50;;;13.80;47.00;;;;;;5090353;28;20052;-69
2022/04/09 06:30:53;;;;;;;1.52;0.40;;;13.90;47.00;;;;;;5091349;28;20070;-69
2022/04/09 06:33:20;;;;;;;1.60;0.30;;;13.90;47.00;;;;;;5091535;28;20072;-66
2022/04/09 06:35:47;;;;;;;1.73;0.30;;;13.80;47.00;;;;;;5089856;28;20071;-69
2022/04/09 06:38:13;;;;;;;0.90;0.10;;;13.90;47.00;;;;;;5089707;28;20040;-65
2022/04/09 06:40:39;;;;;;;3.42;0.40;;;13.90;47.00;;;;;;5091071;28;20038;-69
2022/04/09 06:43:05;;;;;;;1.45;0.20;;;13.90;47.00;;;;;;5089431;28;20442;-66
2022/04/09 06:45:31;;;;;;;1.05;0.20;;;13.90;47.00;;;;;;5089773;28;20048;-69
2022/04/09 06:47:56;;;;;;;1.27;0.20;;;13.90;47.00;;;;;;5091546;28;20102;-69
2022/04/09 06:50:22;;;;;;;1.50;0.20;;;13.90;47.00;;;;;;5089837;28;20051;-67
2022/04/09 06:52:47;;;;;;;1.83;0.20;;;13.90;47.00;;;;;;5089517;28;20040;-69
2022/04/09 06:55:13;;;;;;;2.05;0.20;;;13.90;47.00;;;;;;5089482;28;20040;-66
2022/04/09 06:57:41;;;;;;;1.35;0.20;;;14.00;46.90;;;;;;5089365;28;20040;-68
2022/04/09 07:00:11;;;;;;;1.92;0.17;;;14.00;46.90;;;;;;5089960;28;20101;-69
2022/04/09 07:02:37;;;;;;;1.83;0.20;;;14.00;46.80;;;;;;5089577;28;20149;-69
2022/04/09 07:05:03;;;;;;;0.93;0.13;;;14.10;46.70;;;;;;5089766;28;20422;-71
2022/04/09 07:07:29;;;;;;;1.70;0.20;;;14.00;46.60;;;;;;5090088;28;20068;-66
2022/04/09 07:12:43;;;;;;;1.45;0.20;;;14.10;46.60;;;;;;5143168;27;1402405;-69
2022/04/09 07:15:10;;;;;;;1.90;0.50;;;14.10;46.50;;;;;;5151756;27;20047;-66
2022/04/09 07:17:36;;;;;;;2.45;0.30;;;14.10;46.40;;;;;;5152125;27;20104;-70
2022/04/09 07:20:05;;;;;;;0.63;0.20;;;14.10;46.40;;;;;;5151381;27;20110;-68
2022/04/09 07:22:31;;;;;;;1.38;0.28;;;14.10;46.40;;;;;;5151842;27;20046;-71
2022/04/09 07:24:57;;;;;;;2.10;0.20;;;14.20;46.50;;;;;;5151746;27;20434;-67
2022/04/09 07:27:44;;;;;;;2.50;0.30;;;14.20;47.00;;;;;;5163822;27;20030;-72
2022/04/09 07:30:13;;;;;;;1.33;0.30;;;14.20;47.80;;;;;;5165322;27;20034;-70
2022/04/09 07:32:39;;;;;;;3.83;0.52;;;14.20;47.40;;;;;;5188647;27;20037;-70
2022/04/09 07:35:05;;;;;;;2.65;0.20;;;14.20;48.00;;;;;;5173274;27;20106;-72
2022/04/09 07:37:31;;;;;;;5.88;0.30;;;14.30;48.40;;;;;;5156404;27;20505;-71
2022/04/09 07:39:57;;;;;;;5.03;0.60;;;14.30;48.40;;;;;;5167871;27;20023;-72
2022/04/09 07:42:26;;;;;;;2.65;0.30;;;14.40;48.20;;;;;;5166978;27;20507;-70
2022/04/09 07:44:52;;;;;;;1.48;0.30;;;14.50;48.00;;;;;;5147256;27;20038;-70
2022/04/09 07:47:18;;;;;;;2.33;0.40;;;14.60;47.70;;;;;;5129969;27;20487;-68
2022/04/09 07:49:46;;;;;;;1.58;0.20;;;14.80;47.50;;;;;;5137789;27;20075;-70
2022/04/09 07:52:15;;;;;;;5.30;0.40;;;15.00;47.50;;;;;;5153107;27;20126;-72
2022/04/09 07:54:41;;;;;;;5.10;0.30;;;15.10;47.10;;;;;;5154605;27;20205;-72
2022/04/09 07:57:06;;;;;;;3.15;0.40;;;15.30;46.80;;;;;;5152743;27;20072;-68
2022/04/09 07:59:32;;;;;;;2.92;0.30;;;15.40;46.30;;;;;;5146683;27;20050;-71
2022/04/09 08:01:58;;;;;;;3.22;0.40;;;15.50;45.80;;;;;;5130358;27;20054;-67
2022/04/09 08:04:26;;;;;;;3.08;0.40;;;15.70;45.30;;;;;;5130080;27;20175;-72
2022/04/09 08:06:52;;;;;;;3.20;0.43;;;15.90;44.90;;;;;;5157948;27;20565;-69
2022/04/09 08:09:17;;;;;;;2.60;0.52;;;16.10;44.50;;;;;;5189988;27;20118;-69
2022/04/09 08:11:43;;;;;;;4.30;0.47;;;16.40;44.10;;;;;;5174497;27;20119;-68
2022/04/09 08:14:09;;;;;;;2.97;0.25;;;16.60;43.70;;;;;;5171447;27;20045;-71
2022/04/09 08:16:35;;;;;;;3.05;0.38;;;16.80;43.40;;;;;;5171618;27;20042;-65
2022/04/09 08:19:04;;;;;;;2.72;0.32;;;17.00;43.20;;;;;;5161498;27;20114;-72
2022/04/09 08:21:29;;;;;;;6.20;0.75;;;17.10;42.80;;;;;;5170814;27;20178;-65
2022/04/09 08:23:55;;;;;;;3.85;0.30;;;17.20;42.60;;;;;;5173316;27;20396;-64
2022/04/09 08:26:20;;;;;;;2.10;0.40;;;17.40;42.30;;;;;;5136728;27;20050;-71
2022/04/09 08:28:46;;;;;;;5.20;0.30;;;17.50;42.10;;;;;;5137914;27;20035;-69
2022/04/09 08:31:12;;;;;;;2.45;0.25;;;17.60;41.80;;;;;;5115633;27;20043;-71
2022/04/09 08:33:40;;;;;;;3.88;0.28;;;17.70;41.50;;;;;;5115989;27;20435;-71
2022/04/09 08:36:06;;;;;;;2.65;0.40;;;17.80;41.40;;;;;;5137488;27;20031;-70
2022/04/09 08:38:32;;;;;;;3.05;0.20;;;17.90;41.10;;;;;;5160457;27;20103;-67
2022/04/09 08:41:00;;;;;;;3.15;0.45;;;17.90;41.00;;;;;;5153534;27;20493;-73
2022/04/09 08:43:26;;;;;;;2.72;0.30;;;18.00;40.90;;;;;;5136478;27;20055;-69
2022/04/09 08:45:52;;;;;;;2.10;0.40;;;18.10;40.70;;;;;;5155053;27;20049;-68
2022/04/09 08:48:21;;;;;;;2.17;0.20;;;18.20;40.50;;;;;;5143113;27;20117;-68
2022/04/09 08:50:47;;;;;;;1.10;0.57;;;18.30;40.20;;;;;;5155963;27;20538;-66
2022/04/09 08:53:13;;;;;;;0.98;0.20;;;18.40;40.00;;;;;;5176037;27;20038;-67
2022/04/09 08:55:40;;;;;;;1.42;0.20;;;18.50;39.80;;;;;;5157103;27;20037;-67
2022/04/09 08:58:06;;;;;;;1.90;0.20;;;18.50;39.60;;;;;;5175240;27;20042;-68
2022/04/09 09:00:33;;;;;;;2.22;0.20;;;18.50;39.50;;;;;;5160298;27;20031;-72
2022/04/09 09:03:01;;;;;;;2.08;0.32;;;18.50;39.40;;;;;;5128373;27;20399;-72
2022/04/09 09:08:10;;;;;;;0.80;0.20;;;18.50;39.20;;;;;;5088081;27;20414;-73
2022/04/09 09:10:40;;;;;;;0.77;0.17;;;18.40;39.30;;;;;;5086103;28;20055;-69
2022/04/09 09:13:11;;;;;;;1.90;0.30;;;18.40;39.20;;;;;;5095345;28;20052;-72
2022/04/09 09:15:55;;;;;;;1.85;0.45;;;18.40;39.30;;;;;;5086600;28;20390;-69
2022/04/09 09:18:29;;;;;;;1.27;0.20;;;18.40;39.30;;;;;;5085494;28;20051;-72
2022/04/09 09:20:57;;;;;;;1.15;0.20;;;18.40;39.40;;;;;;5086705;28;20502;-70
2022/04/09 09:26:06;;;;;;;1.52;0.20;;;18.30;39.40;;;;;;5128785;27;20407;-70
2022/04/09 09:28:33;;;;;;;1.17;0.35;;;18.40;39.60;;;;;;5128128;28;20035;-66
2022/04/09 09:30:59;;;;;;;1.45;0.20;;;18.40;39.60;;;;;;5127284;28;20445;-67
2022/04/09 09:33:26;;;;;;;1.95;0.17;;;18.40;39.60;;;;;;5128517;28;20039;-70
2022/04/09 09:38:33;;;;;;;1.42;0.25;;;18.40;39.60;;;;;;5150963;27;1165666;-70
2022/04/09 09:41:01;;;;;;;0.75;0.10;;;18.40;39.60;;;;;;5170066;27;20069;-69
2022/04/09 09:43:28;;;;;;;0.73;0.10;;;18.50;39.70;;;;;;5151542;27;20091;-70
2022/04/09 09:45:54;;;;;;;1.52;0.10;;;18.50;39.60;;;;;;5154276;27;20511;-71
2022/04/09 09:48:23;;;;;;;2.40;0.10;;;18.60;39.60;;;;;;5163488;27;20525;-72
2022/04/09 09:50:50;;;;;;;2.72;0.20;;;18.60;39.50;;;;;;5172707;27;20346;-72
2022/04/09 09:53:26;;;;;;;1.20;0.20;;;18.60;39.40;;;;;;5169161;27;20090;-68
2022/04/09 09:55:52;;;;;;;1.75;0.20;;;18.60;39.30;;;;;;5155802;27;20050;-68
2022/04/09 09:58:21;;;;;;;0.90;0.10;;;18.60;39.20;;;;;;5130673;27;20035;-69
2022/04/09 10:00:49;;;;;;;2.75;0.20;;;18.60;39.20;;;;;;5147811;27;20091;-68
2022/04/09 10:03:16;;;;;;;1.25;0.13;;;18.70;39.20;;;;;;5154990;27;20026;-67
2022/04/09 10:05:42;;;;;;;2.50;0.40;;;18.70;39.00;;;;;;5158958;27;20038;-73
2022/04/09 10:08:09;;;;;;;3.78;0.20;;;18.80;39.00;;;;;;5131466;27;20125;-71
2022/04/09 10:10:36;;;;;;;4.22;0.60;;;18.80;38.80;;;;;;5168356;27;20041;-72
2022/04/09 10:13:04;;;;;;;4.93;0.10;;;18.80;38.80;;;;;;5191183;27;20038;-71
2022/04/09 10:15:30;;;;;;;2.17;0.30;;;18.80;38.80;;;;;;5172553;27;20158;-72
2022/04/09 10:17:59;;;;;;;3.75;0.10;;;18.80;38.80;;;;;;5178462;27;20107;-72
2022/04/09 10:20:26;;;;;;;2.33;0.20;;;18.70;38.80;;;;;;5150652;27;20035;-66
2022/04/09 10:22:59;;;;;;;16.90;2.17;;;18.70;38.90;;;;;;5147481;27;20074;-70
2022/04/09 10:25:28;;;;;;;3.15;0.22;;;18.70;38.90;;;;;;5112994;27;20039;-70
2022/04/09 10:28:01;;;;;;;5.28;0.30;;;18.70;39.00;;;;;;5130418;27;20039;-71
2022/04/09 10:30:29;;;;;;;18.10;1.45;;;18.70;38.90;;;;;;5132814;27;20042;-70
2022/04/09 10:32:57;;;;;;;3.53;0.25;;;18.80;39.10;;;;;;5166608;27;20056;-72
2022/04/09 10:48:52;;;;;;;4.63;0.45;;;18.70;39.00;;;;;;5149326;27;20118;-67
2022/04/09 10:51:18;;;;;;;2.42;0.47;;;18.40;39.30;;;;;;5126778;28;20046;-73
2022/04/09 10:53:48;;;;;;;2.85;0.40;;;18.30;39.50;;;;;;5127174;28;20047;-72
2022/04/09 11:09:54;;;;;;;5.25;0.40;;;18.00;39.90;;;;;;5129092;27;20358;-69
2022/04/09 11:15:19;;;;;;;1.50;0.20;;;17.50;40.80;;;;;;5152136;27;1169120;-66
2022/04/09 11:17:46;;;;;;;2.40;0.50;;;17.40;40.80;;;;;;5152290;27;20460;-69
2022/04/09 11:20:17;;;;;;;2.88;0.40;;;17.40;40.90;;;;;;5152230;27;20613;-69
2022/04/09 11:25:30;;;;;;;1.92;0.20;;;17.30;41.00;;;;;;5129175;27;20353;-70
2022/04/09 11:33:33;;;;;;;1.77;0.30;;;17.00;41.50;;;;;;5108888;27;20354;-68
2022/04/09 11:36:00;;;;;;;2.85;0.17;;;16.90;41.60;;;;;;5090642;28;20600;-69
2022/04/09 11:38:27;;;;;;;1.23;0.15;;;16.90;41.80;;;;;;5090122;28;20044;-65
2022/04/09 11:40:54;;;;;;;1.58;0.30;;;16.80;42.00;;;;;;5090466;28;20055;-71
2022/04/09 11:43:22;;;;;;;1.08;0.20;;;16.70;42.00;;;;;;5090474;28;20276;-68
2022/04/09 11:45:48;;;;;;;0.52;0.10;;;16.70;42.20;;;;;;5090682;28;20118;-71
2022/04/09 11:48:16;;;;;;;1.27;0.30;;;16.70;42.30;;;;;;5091195;28;20387;-69
2022/04/09 11:50:46;;;;;;;1.20;0.10;;;16.60;42.30;;;;;;5090256;28;20071;-69
2022/04/09 11:53:14;;;;;;;2.08;0.32;;;16.60;42.30;;;;;;5073953;28;20036;-69
2022/04/09 11:55:41;;;;;;;1.88;0.10;;;16.60;42.30;;;;;;5090569;28;20036;-68
2022/04/09 11:58:08;;;;;;;1.48;0.45;;;16.60;42.40;;;;;;5089911;28;20563;-67
2022/04/09 12:00:36;;;;;;;2.42;0.10;;;16.50;42.50;;;;;;5108628;28;20051;-69
2022/04/09 12:03:03;;;;;;;1.27;0.10;;;16.50;42.50;;;;;;5090099;28;20085;-68
2022/04/09 12:05:47;;;;;;;1.38;0.20;;;16.50;42.50;;;;;;5089412;28;20044;-68
2022/04/09 12:08:15;;;;;;;1.65;0.20;;;16.50;42.60;;;;;;5090245;28;20043;-68
2022/04/09 12:13:39;;;;;;;1.48;0.20;;;16.50;42.60;;;;;;5150463;27;20095;-71
2022/04/09 12:19:05;;;;;;;2.10;0.20;;;16.40;42.60;;;;;;5170593;27;20300;-68
2022/04/09 12:21:31;;;;;;;1.38;0.10;;;16.40;42.70;;;;;;5131497;27;20061;-69
2022/04/09 12:26:41;;;;;;;0.88;0.10;;;16.40;42.70;;;;;;5108447;27;20412;-70
2022/04/09 12:31:51;;;;;;;2.30;0.10;;;16.30;42.70;;;;;;5088116;27;20389;-68
2022/04/09 12:34:18;;;;;;;0.95;0.15;;;16.30;42.80;;;;;;5087403;28;20546;-69
2022/04/09 12:39:40;;;;;;;0.95;0.17;;;16.30;42.80;;;;;;5129241;27;20403;-67
2022/04/09 12:42:06;;;;;;;1.55;0.10;;;16.30;42.80;;;;;;5128040;28;20043;-70
2022/04/09 12:47:20;;;;;;;1.33;0.10;;;16.20;42.90;;;;;;5088164;27;20360;-69
2022/04/09 12:49:46;;;;;;;0.68;0.10;;;16.10;43.20;;;;;;5087526;28;20044;-69
2022/04/09 12:52:12;;;;;;;1.25;0.10;;;16.00;43.30;;;;;;5087030;28;20537;-70
2022/04/09 12:54:39;;;;;;;0.82;0.10;;;15.90;43.40;;;;;;5087536;28;20093;-66
2022/04/09 12:57:07;;;;;;;0.20;0.00;;;15.90;43.60;;;;;;5087011;28;20041;-68
2022/04/09 12:59:34;;;;;;;2.42;0.10;;;15.90;43.60;;;;;;5087078;28;20037;-65
2022/04/09 13:01:59;;;;;;;0.95;0.10;;;15.90;43.60;;;;;;5088449;28;20463;-68
2022/04/09 13:04:25;;;;;;;1.70;0.10;;;15.90;43.50;;;;;;5086279;28;20036;-68
2022/04/09 13:06:51;;;;;;;1.05;0.10;;;16.00;43.40;;;;;;5086626;28;20070;-65
2022/04/09 13:09:16;;;;;;;1.33;0.28;;;16.00;43.40;;;;;;5088111;28;20036;-68
2022/04/09 13:11:42;;;;;;;1.13;0.10;;;16.00;43.40;;;;;;5086770;28;20036;-68
2022/04/09 13:14:07;;;;;;;1.40;0.10;;;16.00;43.40;;;;;;5120912;28;20396;-69
2022/04/09 13:16:33;;;;;;;1.33;0.08;;;16.00;43.40;;;;;;5088215;28;20135;-70
2022/04/09 13:18:59;;;;;;;1.30;0.20;;;16.10;43.50;;;;;;5087017;28;20048;-70
2022/04/09 13:21:25;;;;;;;0.70;0.20;;;16.10;43.50;;;;;;5086836;28;20037;-68
2022/04/09 13:23:50;;;;;;;0.88;0.10;;;16.00;43.40;;;;;;5086133;28;20036;-65
2022/04/09 13:26:17;;;;;;;1.58;0.10;;;16.00;43.40;;;;;;5086152;28;20079;-66
2022/04/09 13:28:42;;;;;;;0.40;0.00;;;16.10;43.50;;;;;;5087604;28;20115;-65
2022/04/09 13:31:08;;;;;;;1.17;0.10;;;16.10;43.40;;;;;;5120229;28;20515;-69
2022/04/09 13:33:34;;;;;;;1.20;0.15;;;16.10;43.40;;;;;;5085089;28;20044;-68
2022/04/09 13:36:00;;;;;;;0.73;0.08;;;16.10;43.40;;;;;;5086256;28;20043;-68
2022/04/09 13:38:25;;;;;;;0.73;0.10;;;16.00;43.40;;;;;;5086428;28;20051;-67
2022/04/09 13:40:51;;;;;;;0.85;0.17;;;16.00;43.50;;;;;;5087366;28;20032;-69
2022/04/09 13:43:17;;;;;;;1.77;0.10;;;15.90;43.60;;;;;;5085841;28;20058;-66
2022/04/09 13:45:43;;;;;;;0.28;0.00;;;16.00;43.70;;;;;;5085399;28;20044;-68
2022/04/09 13:48:09;;;;;;;0.25;0.00;;;16.00;44.40;;;;;;5085760;28;20476;-66